Latest Coastal Weather Observations for Legendre Island

IDW60701

Issued at 4:15 pm WST Saturday 19 April 2014 (issued every 10 minutes, with the page automatically refreshed every 10 minutes)

About coastal observations | Map of coastal stations | Coastal observations for WA | Marine services | Other Formats
Station Details ID: 004095 Name: LEGENDRE ISLAND Lat: -20.36 Lon: 116.84 Height: 29.0 m
Data from the previous 72 hours. | See also: Recent months for locations in Western Australia
Date/Time
WST
Temp

°C
Wind Pressure Rain
since 9am
mm
Weather Cloud Vis
km
Sea
Height
m
Swell
Dir
 
Speed
knots
Gust
knots
hPa Trend Height
m
Period
s
Dir
19/04:00pm 30.5 N 8 9 1010.5 - - - - - - - - -
19/03:30pm 31.0 N 5 6 1010.9 - - - - - - - - -
19/03:00pm 31.2 N 4 4 1010.8 - - - - - - - - -
19/02:30pm 31.6 NNE 4 5 1011.1 - - - - - - - - -
19/02:00pm 32.2 NNE 5 7 1011.1 - - - - - - - - -
19/01:30pm 31.4 NE 4 6 1011.6 - - - - - - - - -
19/01:00pm 32.2 NNE 6 8 1011.8 - - - - - - - - -
19/12:30pm 31.9 NNE 6 8 1012.4 - - - - - - - - -
19/12:00pm 31.4 NE 5 6 1012.9 - - - - - - - - -
19/11:30am 31.3 ENE 5 6 1013.5 - - - - - - - - -
19/11:00am 32.0 E 7 9 1013.5 - - - - - - - - -
19/10:30am 33.3 SE 9 13 1013.9 - - - - - - - - -
19/10:00am 30.8 SSE 11 13 1014.1 - - - - - - - - -
19/09:30am 31.1 SSE 12 15 1014.3 - - - - - - - - -
19/09:00am 30.2 S 11 14 1014.3 - - - - - - - - -
19/08:30am 29.7 SSE 8 11 1014.4 - - - - - - - - -
19/08:00am 28.1 S 7 10 1014.2 - - - - - - - - -
19/07:30am 26.5 SSE 7 10 1014.1 - - - - - - - - -
19/07:00am 25.1 SSE 9 10 1013.7 - - - - - - - - -
19/06:30am 24.3 SSE 9 10 1013.6 - - - - - - - - -
19/06:00am 24.2 SSE 8 8 1013.3 - - - - - - - - -
19/05:30am 23.9 S 8 9 1013.4 - - - - - - - - -
19/05:00am 23.9 S 10 11 1013.2 - - - - - - - - -
19/04:30am 24.3 SSE 8 9 1013.3 - - - - - - - - -
19/04:00am 24.4 S 6 6 1013.3 - - - - - - - - -
19/03:30am 24.2 S 8 9 1013.5 - - - - - - - - -
19/03:00am 24.4 S 9 10 1013.5 - - - - - - - - -
19/02:30am 24.4 S 9 10 1013.7 - - - - - - - - -
19/02:00am 24.3 S 8 8 1013.6 - - - - - - - - -
19/01:30am 24.8 S 10 12 1013.8 - - - - - - - - -
19/01:00am 24.7 S 8 9 1013.8 - - - - - - - - -
19/12:30am 24.9 S 6 7 1014.1 - - - - - - - - -
19/12:00am 24.8 SSW 8 10 1014.2 - - - - - - - - -
 
Date/Time
WST
Temp

°C
Wind Pressure Rain
since 9am
mm
Weather Cloud Vis
km
Sea
Height
m
Swell
Dir
 
Speed
knots
Gust
knots
hPa Trend Height
m
Period
s
Dir
18/11:30pm 25.7 SSW 4 5 1014.6 - - - - - - - - -
18/11:00pm 27.0 NNW 2 2 1014.7 - - - - - - - - -
18/10:30pm 26.9 NNW 2 3 1014.9 - - - - - - - - -
18/10:00pm 27.4 N 4 5 1014.8 - - - - - - - - -
18/09:30pm 27.5 N 5 6 1014.9 - - - - - - - - -
18/09:00pm 27.6 N 6 6 1014.7 - - - - - - - - -
18/08:30pm 27.7 N 5 6 1014.6 - - - - - - - - -
18/08:00pm 27.8 N 5 5 1014.2 - - - - - - - - -
18/07:30pm 28.0 N 5 6 1014.0 - - - - - - - - -
18/07:00pm 28.2 N 6 7 1013.7 - - - - - - - - -
18/06:30pm 28.4 N 6 7 1013.4 - - - - - - - - -
18/06:00pm 28.6 N 7 8 1013.1 - - - - - - - - -
18/05:30pm 29.2 N 7 7 1012.9 - - - - - - - - -
18/05:00pm 29.1 N 6 7 1012.6 - - - - - - - - -
18/04:30pm 30.6 NNE 6 7 1012.6 - - - - - - - - -
18/04:00pm 31.0 NNE 6 7 1012.2 - - - - - - - - -
18/03:30pm 30.9 NE 7 8 1012.2 - - - - - - - - -
18/03:00pm 31.3 NE 10 11 1012.1 - - - - - - - - -
18/02:30pm 31.4 ENE 12 13 1012.4 - - - - - - - - -
18/02:00pm 31.9 ENE 11 13 1012.4 - - - - - - - - -
18/01:30pm 32.1 ENE 11 13 1012.8 - - - - - - - - -
18/01:00pm 32.0 E 11 12 1012.9 - - - - - - - - -
18/12:30pm 31.6 E 11 12 1013.4 - - - - - - - - -
18/12:00pm 31.6 E 11 12 1013.5 - - - - - - - - -
18/11:30am 31.3 E 9 11 1014.1 - - - - - - - - -
18/11:00am 32.1 ESE 11 13 1014.4 - - - - - - - - -
18/10:30am 31.3 E 11 12 1014.7 - - - - - - - - -
18/10:00am 31.9 ESE 10 12 1014.7 - - - - - - - - -
18/09:30am 31.6 SE 10 13 1014.8 - - - - - - - - -
18/09:00am 30.3 SE 10 12 1014.8 - - - - - - - - -
18/08:30am 29.0 SE 10 12 1014.8 - - - - - - - - -
18/08:00am 27.8 SSE 10 13 1014.6 - - - - - - - - -
18/07:30am 26.6 SSE 12 15 1014.5 - - - - - - - - -
18/07:00am 24.5 S 7 9 1014.2 - - - - - - - - -
18/06:30am 24.4 SSE 8 10 1014.2 - - - - - - - - -
18/06:00am 23.7 SSE 7 8 1014.0 - - - - - - - - -
18/05:30am 24.3 SSE 5 6 1014.0 - - - - - - - - -
18/05:00am 23.8 SSE 5 7 1013.8 - - - - - - - - -
18/04:30am 24.1 S 5 6 1013.7 - - - - - - - - -
18/04:00am 24.2 S 8 8 1013.6 - - - - - - - - -
18/03:30am 24.2 S 9 10 1013.7 - - - - - - - - -
18/03:00am 24.0 S 9 10 1013.5 - - - - - - - - -
18/02:30am 24.4 S 9 11 1013.8 - - - - - - - - -
18/02:00am 24.7 S 10 11 1013.8 - - - - - - - - -
18/01:30am 24.6 S 8 10 1014.0 - - - - - - - - -
18/01:00am 24.5 SSW 8 9 1014.2 - - - - - - - - -
18/12:30am 25.2 NNW 3 7 1014.5 - - - - - - - - -
18/12:00am 26.7 CALM 0 0 1014.7 - - - - - - - - -
 
Date/Time
WST
Temp

°C
Wind Pressure Rain
since 9am
mm
Weather Cloud Vis
km
Sea
Height
m
Swell
Dir
 
Speed
knots
Gust
knots
hPa Trend Height
m
Period
s
Dir
17/11:30pm 27.4 N 3 4 1014.8 - - - - - - - - -
17/11:00pm 27.7 N 4 5 1014.8 - - - - - - - - -
17/10:30pm 27.7 N 5 7 1015.0 - - - - - - - - -
17/10:00pm 27.9 N 7 7 1014.8 - - - - - - - - -
17/09:30pm 27.9 N 7 8 1015.0 - - - - - - - - -
17/09:00pm 28.1 N 7 8 1014.7 - - - - - - - - -
17/08:30pm 28.2 N 9 10 1014.5 - - - - - - - - -
17/08:00pm 28.1 N 8 9 1014.2 - - - - - - - - -
17/07:30pm 28.1 N 9 11 1013.8 - - - - - - - - -
17/07:00pm 28.3 N 11 12 1013.2 - - - - - - - - -
17/06:30pm 28.4 NNE 10 12 1013.1 - - - - - - - - -
17/06:00pm 28.5 NNE 10 12 1012.7 - - - - - - - - -
17/05:30pm 29.1 NNE 9 11 1012.6 - - - - - - - - -
17/05:00pm 29.7 NNE 9 10 1012.2 - - - - - - - - -
17/04:30pm 30.2 NE 9 10 1012.2 - - - - - - - - -
17/04:00pm 30.5 NE 9 10 1011.9 - - - - - - - - -
17/03:30pm 31.0 ENE 9 10 1012.2 - - - - - - - - -
17/03:00pm 31.7 ENE 9 11 1012.1 - - - - - - - - -
17/02:30pm 31.8 E 8 9 1012.5 - - - - - - - - -
17/02:00pm 32.0 E 10 11 1012.5 - - - - - - - - -
17/01:30pm 31.7 E 12 13 1012.7 - - - - - - - - -
17/01:00pm 31.6 ENE 14 16 1012.9 - - - - - - - - -
17/12:30pm 31.3 E 15 17 1013.5 - - - - - - - - -
17/12:00pm 31.1 E 16 19 1013.8 - - - - - - - - -
17/11:30am 31.2 E 15 18 1014.3 - - - - - - - - -
17/11:00am 31.9 ESE 11 14 1014.6 - - - - - - - - -
17/10:30am 32.0 ESE 13 15 1014.9 - - - - - - - - -
17/10:00am 30.7 ESE 13 16 1015.0 - - - - - - - - -
17/09:30am 29.5 SE 12 15 1015.2 - - - - - - - - -
17/09:00am 29.3 SE 12 16 1015.0 - - - - - - - - -
17/08:30am 28.4 SSE 13 16 1014.9 - - - - - - - - -
17/08:00am 27.4 SSE 12 16 1014.6 - - - - - - - - -
17/07:30am 26.0 S 10 12 1014.5 - - - - - - - - -
17/07:00am 25.3 S 13 15 1013.9 - - - - - - - - -
17/06:30am 24.5 SSE 14 17 1013.8 - - - - - - - - -
17/06:00am 23.6 SSE 10 13 1013.6 - - - - - - - - -
17/05:30am 24.1 S 11 12 1013.7 - - - - - - - - -
17/05:00am 24.4 S 10 11 1013.6 - - - - - - - - -
17/04:30am 24.2 S 10 12 1013.5 - - - - - - - - -
17/04:00am 24.8 S 12 14 1013.3 - - - - - - - - -
17/03:30am 24.9 S 12 15 1013.5 - - - - - - - - -
17/03:00am 24.6 S 9 11 1013.4 - - - - - - - - -
17/02:30am 24.4 S 10 12 1013.8 - - - - - - - - -
17/02:00am 24.6 S 9 11 1013.7 - - - - - - - - -
17/01:30am 24.2 S 7 8 1013.9 - - - - - - - - -
17/01:00am 24.4 S 7 8 1014.0 - - - - - - - - -
17/12:30am 24.6 S 7 9 1014.1 - - - - - - - - -
17/12:00am 25.2 N 2 6 1014.1 - - - - - - - - -
 
Date/Time
WST
Temp

°C
Wind Pressure Rain
since 9am
mm
Weather Cloud Vis
km
Sea
Height
m
Swell
Dir
 
Speed
knots
Gust
knots
hPa Trend Height
m
Period
s
Dir
16/11:30pm 26.7 NW 2 2 1014.1 - - - - - - - - -
16/11:00pm 27.0 CALM 0 1 1014.3 - - - - - - - - -
16/10:30pm 27.8 N 7 9 1014.3 - - - - - - - - -
16/10:00pm 27.9 N 11 12 1014.2 - - - - - - - - -
16/09:30pm 27.9 N 9 10 1014.1 - - - - - - - - -
16/09:00pm 28.0 N 10 11 1013.8 - - - - - - - - -
16/08:30pm 28.1 N 9 11 1013.7 - - - - - - - - -
16/08:00pm 28.3 N 9 11 1013.3 - - - - - - - - -
16/07:30pm 28.4 N 10 11 1012.8 - - - - - - - - -
16/07:00pm 28.2 N 9 11 1012.5 - - - - - - - - -
16/06:30pm 28.3 N 10 12 1012.4 - - - - - - - - -
16/06:00pm 28.5 NNE 12 14 1012.0 - - - - - - - - -
16/05:30pm 28.8 NNE 12 14 1011.9 - - - - - - - - -
16/05:00pm 29.2 NNE 14 15 1011.4 - - - - - - - - -
16/04:30pm 29.6 NNE 13 15 1011.6 - - - - - - - - -

Other Formats:

Comma delimited format used in spreadsheet applications
http://www.bom.gov.au/fwo/IDW60701/IDW60701.94307.axf

JavaScript Object Notation format (JSON) in row-major order
http://www.bom.gov.au/fwo/IDW60701/IDW60701.94307.json